createdAt,value
2023-07-08T00:05:08.957Z,1014
2023-07-08T00:17:09.064Z,1014
2023-07-08T00:29:09.044Z,1014
2023-07-08T00:41:08.981Z,1014
2023-07-08T00:53:09.000Z,1014
2023-07-08T01:05:09.119Z,1014
2023-07-08T01:17:09.071Z,1014
2023-07-08T01:29:09.017Z,1013
2023-07-08T01:41:09.003Z,1013
2023-07-08T01:53:09.210Z,1013
2023-07-08T02:05:09.164Z,1013
2023-07-08T02:17:09.038Z,1013
2023-07-08T02:29:09.258Z,1013
2023-07-08T02:41:09.149Z,1013
2023-07-08T02:53:09.127Z,1013
2023-07-08T03:05:09.083Z,1012
2023-07-08T03:17:09.361Z,1012
2023-07-08T03:29:09.183Z,1012
2023-07-08T03:41:09.157Z,1012
2023-07-08T03:53:09.104Z,1012
2023-07-08T04:05:09.308Z,1012
2023-07-08T04:17:09.223Z,1012
2023-07-08T04:29:09.266Z,1012
2023-07-08T04:41:09.374Z,1012
2023-07-08T04:53:09.317Z,1012
2023-07-08T05:05:09.269Z,1012
2023-07-08T05:17:09.224Z,1012
2023-07-08T05:29:09.358Z,1012
2023-07-08T05:41:09.343Z,1012
2023-07-08T05:53:09.274Z,1013
2023-07-08T06:05:09.270Z,1013
2023-07-08T06:17:09.427Z,1013
2023-07-08T06:29:09.352Z,1013
2023-07-08T06:41:09.296Z,1013
2023-07-08T06:53:09.492Z,1013
2023-07-08T07:05:09.443Z,1013
2023-07-08T07:17:09.563Z,1014
2023-07-08T07:29:09.337Z,1015
2023-07-08T07:41:09.559Z,1015
2023-07-08T07:53:09.464Z,1015
2023-07-08T08:05:09.456Z,1015
2023-07-08T08:17:09.527Z,1015
2023-07-08T08:29:09.543Z,1015
2023-07-08T08:41:09.485Z,1016
2023-07-08T08:53:09.480Z,1016
2023-07-08T09:05:10.019Z,1016
2023-07-08T09:17:09.700Z,1017
2023-07-08T09:29:09.658Z,1017
2023-07-08T09:41:09.650Z,1016
2023-07-08T09:53:09.621Z,1016
2023-07-08T10:05:09.655Z,1016
2023-07-08T10:17:09.930Z,1017
2023-07-08T10:29:09.532Z,1017
2023-07-08T10:41:09.665Z,1017
2023-07-08T10:53:09.632Z,1018
2023-07-08T11:05:09.628Z,1018
2023-07-08T11:17:10.180Z,1018
2023-07-08T11:29:09.793Z,1018
2023-07-08T11:41:09.662Z,1018
2023-07-08T12:05:09.817Z,1019
2023-07-08T12:17:09.781Z,1019
2023-07-08T12:29:09.732Z,1019
2023-07-08T12:41:09.701Z,1019
2023-07-08T12:53:09.866Z,1019
2023-07-08T13:05:09.745Z,1019
2023-07-08T13:17:09.810Z,1018
2023-07-08T13:29:09.875Z,1019
2023-07-08T13:41:09.872Z,1018
2023-07-08T13:53:09.789Z,1019
2023-07-08T14:05:09.776Z,1018
2023-07-08T14:17:10.058Z,1018
2023-07-08T14:29:09.887Z,1018
2023-07-08T14:41:10.955Z,1018
2023-07-08T16:05:00.199Z,1017
2023-07-08T16:17:00.659Z,1017
2023-07-08T16:29:00.296Z,1017
2023-07-08T16:41:00.516Z,1017
2023-07-08T16:53:00.286Z,1017
2023-07-08T17:05:00.434Z,1017
2023-07-08T17:17:00.351Z,1017
2023-07-08T17:29:00.320Z,1017
2023-07-08T17:41:00.435Z,1017
2023-07-08T17:53:00.434Z,1017
2023-07-08T18:05:00.304Z,1017
2023-07-08T18:17:00.504Z,1017
2023-07-08T18:29:00.424Z,1018
2023-07-08T18:41:00.432Z,1018
2023-07-08T18:53:00.377Z,1018
2023-07-08T19:05:00.514Z,1018
2023-07-08T19:17:00.497Z,1018
2023-07-08T19:29:00.441Z,1017
2023-07-08T19:41:00.428Z,1017
2023-07-08T19:53:00.551Z,1017
2023-07-08T20:05:00.470Z,1017
2023-07-08T20:17:00.549Z,1017
2023-07-08T20:29:00.650Z,1017
2023-07-08T20:41:00.619Z,1017
2023-07-08T20:53:00.525Z,1017
2023-07-08T21:05:00.502Z,1017
2023-07-08T21:17:00.659Z,1018
2023-07-08T21:29:00.646Z,1017
2023-07-08T21:41:00.580Z,1017
2023-07-08T21:53:00.581Z,1017
2023-07-08T22:05:00.704Z,1017
2023-07-08T22:17:09.730Z,1017
2023-07-08T22:29:00.589Z,1017
2023-07-08T22:41:00.608Z,1017
2023-07-08T22:53:00.722Z,1017
2023-07-08T23:05:00.772Z,1017
2023-07-08T23:17:00.760Z,1017
2023-07-08T23:29:00.805Z,1017
2023-07-08T23:41:00.776Z,1017
2023-07-08T23:53:00.751Z,1017
